createdAt,value
2023-05-12T00:00:58.505Z,54.48
2023-05-12T00:03:26.897Z,54.81
2023-05-12T00:05:55.116Z,54.68
2023-05-12T00:08:23.230Z,54.62
2023-05-12T00:10:51.785Z,54.97
2023-05-12T00:13:23.537Z,54.89
2023-05-12T00:15:54.783Z,54.83
2023-05-12T00:18:24.546Z,55.37
2023-05-12T00:20:54.071Z,55.37
2023-05-12T00:23:22.535Z,55.34
2023-05-12T00:25:51.444Z,55.80
2023-05-12T00:28:21.732Z,55.50
2023-05-12T00:30:49.862Z,55.72
2023-05-12T00:33:18.077Z,55.46
2023-05-12T00:35:47.684Z,55.54
2023-05-12T00:38:16.029Z,55.67
2023-05-12T00:40:44.187Z,56.24
2023-05-12T00:43:12.542Z,56.39
2023-05-12T00:45:40.909Z,57.41
2023-05-12T00:48:09.717Z,57.33
2023-05-12T00:50:38.262Z,56.70
2023-05-12T00:53:08.684Z,56.98
2023-05-12T00:55:37.965Z,58.04
2023-05-12T00:58:06.354Z,58.18
2023-05-12T01:00:34.530Z,58.49
2023-05-12T01:03:03.112Z,57.98
2023-05-12T01:05:37.458Z,57.59
2023-05-12T01:08:08.768Z,58.74
2023-05-12T01:10:37.137Z,59.16
2023-05-12T01:13:05.262Z,58.98
2023-05-12T01:15:34.308Z,59.32
2023-05-12T01:18:06.254Z,58.47
2023-05-12T01:20:35.536Z,58.19
2023-05-12T01:23:05.293Z,58.58
2023-05-12T01:25:35.437Z,59.10
2023-05-12T01:28:06.996Z,58.93
2023-05-12T01:30:36.097Z,57.92
2023-05-12T01:33:04.481Z,59.42
2023-05-12T01:35:32.688Z,59.01
2023-05-12T01:38:00.823Z,58.52
2023-05-12T01:40:29.175Z,57.95
2023-05-12T01:42:57.241Z,58.37
2023-05-12T01:45:26.745Z,59.14
2023-05-12T01:47:54.864Z,58.37
2023-05-12T01:50:23.103Z,58.06
2023-05-12T01:52:51.326Z,57.64
2023-05-12T01:55:19.622Z,57.78
2023-05-12T01:57:47.696Z,58.25
2023-05-12T02:00:16.749Z,59.00
2023-05-12T02:02:46.318Z,57.82
2023-05-12T02:05:14.509Z,58.12
2023-05-12T02:07:42.644Z,58.02
2023-05-12T02:10:11.272Z,57.33
2023-05-12T02:12:39.770Z,57.22
2023-05-12T02:15:08.972Z,59.25
2023-05-12T02:17:37.199Z,59.90
2023-05-12T02:20:08.934Z,60.78
2023-05-12T02:22:37.031Z,61.34
2023-05-12T02:25:06.450Z,61.97
2023-05-12T02:27:34.589Z,62.30
2023-05-12T02:30:02.705Z,62.67
2023-05-12T02:32:30.871Z,62.38
2023-05-12T02:34:59.258Z,62.06
2023-05-12T02:37:28.720Z,59.65
2023-05-12T02:39:56.908Z,60.16
2023-05-12T02:42:25.012Z,59.74
2023-05-12T02:44:53.078Z,59.17
2023-05-12T02:47:21.222Z,59.76
2023-05-12T02:49:49.290Z,59.24
2023-05-12T02:52:17.403Z,59.49
2023-05-12T02:54:46.840Z,59.15
2023-05-12T02:57:14.949Z,58.31
2023-05-12T02:59:43.021Z,58.68
2023-05-12T03:02:11.258Z,59.33
2023-05-12T03:04:39.417Z,58.92
2023-05-12T03:07:07.890Z,59.21
2023-05-12T03:09:36.094Z,59.91
2023-05-12T03:12:06.504Z,60.42
2023-05-12T03:14:34.613Z,60.84
2023-05-12T03:17:02.759Z,60.06
2023-05-12T03:19:30.895Z,59.88
2023-05-12T03:21:59.067Z,60.22
2023-05-12T03:24:27.239Z,60.84
2023-05-12T03:26:55.787Z,60.19
2023-05-12T03:29:25.596Z,59.82
2023-05-12T03:31:54.225Z,60.13
2023-05-12T03:34:22.390Z,61.15
2023-05-12T03:36:50.651Z,61.10
2023-05-12T03:39:19.773Z,61.12
2023-05-12T03:41:47.937Z,61.47
2023-05-12T03:44:16.101Z,61.44
2023-05-12T03:46:45.721Z,61.59
2023-05-12T03:49:14.083Z,61.23
2023-05-12T03:51:42.253Z,60.70
2023-05-12T03:54:10.473Z,59.50
2023-05-12T03:56:38.750Z,59.74
2023-05-12T03:59:06.898Z,60.15
2023-05-12T04:01:35.640Z,60.14
2023-05-12T04:04:05.732Z,59.45
2023-05-12T04:06:33.897Z,59.25
2023-05-12T04:09:02.231Z,59.13
2023-05-12T04:11:30.457Z,59.46
2023-05-12T04:13:58.589Z,59.23
2023-05-12T04:16:26.817Z,59.08
2023-05-12T04:18:55.087Z,59.10
2023-05-12T04:21:24.642Z,59.24
2023-05-12T04:23:53.757Z,58.41
2023-05-12T04:26:22.003Z,58.69
2023-05-12T04:28:50.192Z,58.38
2023-05-12T04:31:18.414Z,58.37
2023-05-12T04:33:48.310Z,57.94
2023-05-12T04:36:16.835Z,58.61
2023-05-12T04:38:46.689Z,58.44
2023-05-12T04:41:14.904Z,58.54
2023-05-12T04:46:14.371Z,58.52
2023-05-12T04:48:43.504Z,57.80
2023-05-12T04:51:11.736Z,57.90
2023-05-12T04:53:39.929Z,58.33
2023-05-12T04:56:09.589Z,58.23
2023-05-12T04:58:38.362Z,56.77
2023-05-12T05:01:06.885Z,58.00
2023-05-12T05:03:35.389Z,57.57
2023-05-12T05:06:03.565Z,57.53
2023-05-12T05:08:31.779Z,57.36
2023-05-12T05:10:59.968Z,57.17
2023-05-12T05:13:29.481Z,56.54
2023-05-12T05:15:57.739Z,56.71
2023-05-12T05:18:26.126Z,55.90
2023-05-12T05:20:58.446Z,56.16
2023-05-12T05:23:27.486Z,56.21
2023-05-12T05:25:56.124Z,56.05
2023-05-12T05:28:24.261Z,55.53
2023-05-12T05:30:53.737Z,56.01
2023-05-12T05:33:21.928Z,55.49
2023-05-12T05:35:50.288Z,55.57
2023-05-12T05:38:18.761Z,54.63
2023-05-12T05:40:53.589Z,53.95
2023-05-12T05:43:22.765Z,53.64
2023-05-12T05:45:51.406Z,53.60
2023-05-12T05:48:21.008Z,53.17
2023-05-12T05:50:49.556Z,53.34
2023-05-12T05:53:18.376Z,51.80
2023-05-12T05:55:46.750Z,52.15
2023-05-12T05:58:15.189Z,50.62
2023-05-12T06:00:44.048Z,51.30
2023-05-12T06:03:12.650Z,50.62
2023-05-12T06:05:43.404Z,51.14
2023-05-12T06:08:13.363Z,50.14
2023-05-12T06:10:42.086Z,50.42
2023-05-12T06:13:10.706Z,50.05
2023-05-12T06:15:39.848Z,50.13
2023-05-12T06:18:08.118Z,49.90
2023-05-12T06:20:36.314Z,49.61
2023-05-12T06:23:06.732Z,48.83
2023-05-12T06:25:34.821Z,48.81
2023-05-12T06:28:03.219Z,48.47
2023-05-12T06:30:31.558Z,47.72
2023-05-12T06:32:59.786Z,47.81
2023-05-12T06:35:28.112Z,47.40
2023-05-12T06:37:56.259Z,47.15
2023-05-12T06:40:25.813Z,46.68
2023-05-12T06:42:54.075Z,47.46
2023-05-12T06:45:23.569Z,46.10
2023-05-12T06:47:52.076Z,46.78
2023-05-12T06:50:20.421Z,46.43
2023-05-12T06:52:48.536Z,46.25
2023-05-12T06:55:19.744Z,46.08
2023-05-12T06:57:51.539Z,45.95
2023-05-12T07:00:20.629Z,46.46
2023-05-12T07:02:48.858Z,47.48
2023-05-12T07:05:19.040Z,46.21
2023-05-12T07:07:47.415Z,46.17
2023-05-12T07:10:16.142Z,46.17
2023-05-12T07:12:44.362Z,45.02
2023-05-12T07:15:14.066Z,45.41
2023-05-12T07:17:42.278Z,44.74
2023-05-12T07:20:11.206Z,44.34
2023-05-12T07:22:39.386Z,44.23
2023-05-12T07:25:08.965Z,45.42
2023-05-12T07:27:37.159Z,45.05
2023-05-12T07:30:06.916Z,45.50
2023-05-12T07:32:36.798Z,45.62
2023-05-12T07:35:05.641Z,46.12
2023-05-12T07:37:33.825Z,47.08
2023-05-12T07:40:02.211Z,46.37
2023-05-12T07:42:30.380Z,45.59
2023-05-12T07:44:58.499Z,44.64
2023-05-12T07:47:28.677Z,44.79
2023-05-12T07:49:58.256Z,45.08
2023-05-12T07:52:26.449Z,44.46
2023-05-12T07:54:56.644Z,44.62
2023-05-12T07:57:24.820Z,44.96
2023-05-12T07:59:52.953Z,44.82
2023-05-12T08:02:21.185Z,44.32
2023-05-12T08:04:49.339Z,43.80
2023-05-12T08:07:18.836Z,43.39
2023-05-12T08:09:46.928Z,44.05
2023-05-12T08:12:15.031Z,43.07
2023-05-12T08:14:43.198Z,43.03
2023-05-12T08:17:11.358Z,43.27
2023-05-12T08:19:39.725Z,43.26
2023-05-12T08:22:07.967Z,42.80
2023-05-12T08:24:37.558Z,43.03
2023-05-12T08:27:06.229Z,42.27
2023-05-12T08:29:34.425Z,41.93
2023-05-12T08:32:03.845Z,41.20
2023-05-12T08:34:32.482Z,42.61
2023-05-12T08:37:01.094Z,43.28
2023-05-12T08:39:30.962Z,41.78
2023-05-12T08:42:13.528Z,42.20
2023-05-12T08:44:41.980Z,40.87
2023-05-12T08:47:12.917Z,41.60
2023-05-12T08:49:43.919Z,40.87
2023-05-12T08:52:18.314Z,41.21
2023-05-12T08:54:55.529Z,40.74
2023-05-12T08:57:29.432Z,40.72
2023-05-12T09:00:00.092Z,40.00
2023-05-12T09:02:44.671Z,40.81
2023-05-12T09:05:16.845Z,40.82
2023-05-12T09:07:45.778Z,40.73
2023-05-12T09:10:33.607Z,40.96
2023-05-12T09:13:14.545Z,41.65
2023-05-12T09:15:46.659Z,39.82
2023-05-12T09:18:14.920Z,39.69
2023-05-12T09:20:43.745Z,39.83
2023-05-12T09:23:20.663Z,38.79
2023-05-12T09:25:59.369Z,39.18
2023-05-12T09:28:38.620Z,39.06
2023-05-12T09:31:17.736Z,38.48
2023-05-12T09:33:45.939Z,38.80
2023-05-12T09:36:18.223Z,38.80
2023-05-12T09:38:46.346Z,37.76
2023-05-12T09:41:14.535Z,37.71
2023-05-12T09:43:47.851Z,38.23
2023-05-12T09:46:16.002Z,37.21
2023-05-12T09:48:44.119Z,37.60
2023-05-12T09:51:12.757Z,37.32
2023-05-12T09:53:44.349Z,37.50
2023-05-12T09:56:14.982Z,38.08
2023-05-12T09:58:45.752Z,38.46
2023-05-12T10:01:23.281Z,38.34
2023-05-12T10:03:55.700Z,38.12
2023-05-12T10:06:28.928Z,37.70
2023-05-12T10:09:07.783Z,38.12
2023-05-12T10:11:36.814Z,38.53
2023-05-12T10:14:08.069Z,38.34
2023-05-12T10:16:38.079Z,38.62
2023-05-12T10:19:07.723Z,38.02
2023-05-12T10:21:37.745Z,38.25
2023-05-12T10:24:06.249Z,38.64
2023-05-12T10:26:34.913Z,38.13
2023-05-12T10:29:03.377Z,38.32
2023-05-12T10:31:32.294Z,38.17
2023-05-12T10:34:03.735Z,37.95
2023-05-12T10:36:32.096Z,37.54
2023-05-12T10:39:06.988Z,37.89
2023-05-12T10:41:36.584Z,38.03
2023-05-12T10:44:05.188Z,37.69
2023-05-12T10:46:33.464Z,38.06
2023-05-12T10:49:08.210Z,37.69
2023-05-12T10:51:49.490Z,37.44
2023-05-12T10:54:25.182Z,37.46
2023-05-12T10:56:55.246Z,36.83
2023-05-12T10:59:25.442Z,36.11
2023-05-12T11:02:03.920Z,36.01
2023-05-12T11:04:44.492Z,35.93
2023-05-12T11:07:16.482Z,36.24
2023-05-12T11:12:19.071Z,36.04
2023-05-12T11:14:48.675Z,36.00
2023-05-12T11:17:17.426Z,35.88
2023-05-12T11:19:52.525Z,35.45
2023-05-12T11:22:23.864Z,35.33
2023-05-12T11:24:53.414Z,34.82
2023-05-12T11:27:26.596Z,34.97
2023-05-12T11:29:59.273Z,35.87
2023-05-12T11:32:27.995Z,36.42
2023-05-12T11:34:58.467Z,35.09
2023-05-12T11:37:26.727Z,35.11
2023-05-12T11:39:54.869Z,35.61
2023-05-12T11:42:25.185Z,34.08
2023-05-12T11:44:55.398Z,33.02
2023-05-12T11:47:23.690Z,33.29
2023-05-12T11:49:54.418Z,32.69
2023-05-12T11:52:25.877Z,32.60
2023-05-12T11:54:58.892Z,33.65
2023-05-12T11:57:28.423Z,33.03
2023-05-12T12:00:01.018Z,33.07
2023-05-12T12:02:29.874Z,32.85
2023-05-12T12:04:58.651Z,33.14
2023-05-12T12:07:32.663Z,33.51
2023-05-12T12:10:13.124Z,33.14
2023-05-12T12:12:41.653Z,32.67
2023-05-12T12:15:11.322Z,33.31
2023-05-12T12:17:40.379Z,34.27
2023-05-12T12:20:10.569Z,32.70
2023-05-12T12:22:40.068Z,32.91
2023-05-12T12:25:09.833Z,33.51
2023-05-12T12:27:38.304Z,33.50
2023-05-12T12:30:08.105Z,32.72
2023-05-12T12:32:36.224Z,33.36
2023-05-12T12:35:06.624Z,33.33
2023-05-12T12:37:34.849Z,33.09
2023-05-12T12:40:08.187Z,32.03
2023-05-12T12:42:37.163Z,32.17
2023-05-12T12:45:08.382Z,32.00
2023-05-12T12:47:38.782Z,31.77
2023-05-12T12:50:09.673Z,32.02
2023-05-12T12:52:38.988Z,31.66
2023-05-12T12:55:09.941Z,31.43
2023-05-12T12:57:38.076Z,30.84
2023-05-12T13:00:08.586Z,30.86
2023-05-12T13:02:37.141Z,31.28
2023-05-12T13:05:07.073Z,30.09
2023-05-12T13:07:35.530Z,30.59
2023-05-12T13:10:03.826Z,30.53
2023-05-12T13:12:33.369Z,30.70
2023-05-12T13:15:02.293Z,30.78
2023-05-12T13:17:30.529Z,30.42
2023-05-12T13:19:59.548Z,30.69
2023-05-12T13:22:28.911Z,29.71
2023-05-12T13:24:57.244Z,29.57
2023-05-12T13:27:25.868Z,30.16
2023-05-12T13:29:55.328Z,30.33
2023-05-12T13:32:23.517Z,30.67
2023-05-12T13:34:51.610Z,30.02
2023-05-12T13:37:19.789Z,29.12
2023-05-12T13:39:48.063Z,29.51
2023-05-12T13:42:17.088Z,29.69
2023-05-12T13:44:45.360Z,30.19
2023-05-12T13:47:14.858Z,30.77
2023-05-12T13:49:43.226Z,31.19
2023-05-12T13:52:11.581Z,31.25
2023-05-12T13:54:39.773Z,31.32
2023-05-12T13:57:07.914Z,32.15
2023-05-12T13:59:36.164Z,31.88
2023-05-12T14:02:04.501Z,32.59
2023-05-12T14:04:34.232Z,32.43
2023-05-12T14:07:02.447Z,32.14
2023-05-12T14:09:30.626Z,32.45
2023-05-12T14:11:58.948Z,31.33
2023-05-12T14:14:27.094Z,31.06
2023-05-12T14:16:55.335Z,30.98
2023-05-12T14:19:23.521Z,30.77
2023-05-12T14:21:53.037Z,30.79
2023-05-12T14:24:21.192Z,31.08
2023-05-12T14:26:49.411Z,31.03
2023-05-12T14:29:17.543Z,31.35
2023-05-12T14:31:45.785Z,31.28
2023-05-12T14:34:14.090Z,31.47
2023-05-12T14:36:42.223Z,31.88
2023-05-12T14:39:11.792Z,32.22
2023-05-12T14:41:40.067Z,32.18
2023-05-12T14:44:08.220Z,31.59
2023-05-12T14:46:36.965Z,32.28
2023-05-12T14:49:10.494Z,32.59
2023-05-12T14:51:39.147Z,32.50
2023-05-12T14:54:18.197Z,32.99
2023-05-12T14:56:54.213Z,32.73
2023-05-12T14:59:22.400Z,32.27
2023-05-12T15:01:50.822Z,31.61
2023-05-12T15:04:19.026Z,31.67
2023-05-12T15:06:47.196Z,31.47
2023-05-12T15:09:15.391Z,31.26
2023-05-12T15:11:45.233Z,30.94
2023-05-12T15:14:14.870Z,31.08
2023-05-12T15:16:43.097Z,30.48
2023-05-12T15:19:11.352Z,30.83
2023-05-12T15:21:39.580Z,30.23
2023-05-12T15:24:08.200Z,30.71
2023-05-12T15:26:39.889Z,31.05
2023-05-12T15:29:08.724Z,31.74
2023-05-12T15:31:38.277Z,32.12
2023-05-12T15:34:06.453Z,32.87
2023-05-12T15:36:34.711Z,33.38
2023-05-12T15:39:05.072Z,34.57
2023-05-12T15:41:33.288Z,34.86
2023-05-12T15:44:01.497Z,35.31
2023-05-12T15:46:30.933Z,35.22
2023-05-12T15:49:00.614Z,36.05
2023-05-12T15:51:29.848Z,35.69
2023-05-12T15:53:57.997Z,35.33
2023-05-12T15:56:28.544Z,34.30
2023-05-12T15:58:57.137Z,33.50
2023-05-12T16:01:25.830Z,32.80
2023-05-12T16:03:55.496Z,33.81
2023-05-12T16:06:25.118Z,33.80
2023-05-12T16:08:53.317Z,34.07
2023-05-12T16:11:21.536Z,33.60
2023-05-12T16:13:49.871Z,32.95
2023-05-12T16:16:18.078Z,32.43
2023-05-12T16:18:46.354Z,32.80
2023-05-12T16:21:14.585Z,32.63
2023-05-12T16:23:44.278Z,32.75
2023-05-12T16:26:12.514Z,32.33
2023-05-12T16:28:40.756Z,32.48
2023-05-12T16:31:09.176Z,32.75
2023-05-12T16:33:37.277Z,32.77
2023-05-12T16:36:05.903Z,33.32
2023-05-12T16:38:34.716Z,33.69
2023-05-12T16:41:04.667Z,34.30
2023-05-12T16:43:32.780Z,34.43
2023-05-12T16:46:02.201Z,34.45
2023-05-12T16:48:34.151Z,34.83
2023-05-12T16:51:04.402Z,35.65
2023-05-12T16:53:32.734Z,35.79
2023-05-12T16:56:01.219Z,35.77
2023-05-12T16:58:32.168Z,35.94
2023-05-12T17:01:01.884Z,35.70
2023-05-12T17:03:31.503Z,35.96
2023-05-12T17:05:59.808Z,35.84
2023-05-12T17:08:27.961Z,35.51
2023-05-12T17:10:56.170Z,35.61
2023-05-12T17:13:24.295Z,35.41
2023-05-12T17:15:53.949Z,35.80
2023-05-12T17:18:22.278Z,36.12
2023-05-12T17:20:50.445Z,37.13
2023-05-12T17:23:18.668Z,41.43
2023-05-12T17:25:46.832Z,44.09
2023-05-12T17:28:14.913Z,46.82
2023-05-12T17:30:43.198Z,51.47
2023-05-12T17:33:15.320Z,49.25
2023-05-12T17:35:44.387Z,53.25
2023-05-12T17:38:15.213Z,51.75
2023-05-12T17:40:43.329Z,52.97
2023-05-12T17:43:11.742Z,53.98
2023-05-12T17:45:39.920Z,55.25
2023-05-12T17:48:08.089Z,52.96
2023-05-12T17:50:37.647Z,53.49
2023-05-12T17:53:06.029Z,50.43
2023-05-12T17:55:34.561Z,48.36
2023-05-12T17:58:02.733Z,48.38
2023-05-12T18:00:30.993Z,47.07
2023-05-12T18:02:59.248Z,46.91
2023-05-12T18:05:28.399Z,47.74
2023-05-12T18:07:57.899Z,49.50
2023-05-12T18:10:26.061Z,51.25
2023-05-12T18:12:55.533Z,51.95
2023-05-12T18:15:24.797Z,51.98
2023-05-12T18:17:53.138Z,52.01
2023-05-12T18:20:21.788Z,52.11
2023-05-12T18:22:50.712Z,50.67
2023-05-12T18:25:20.534Z,49.45
2023-05-12T18:27:49.250Z,49.14
2023-05-12T18:30:17.727Z,49.69
2023-05-12T18:32:46.210Z,48.96
2023-05-12T18:35:14.357Z,49.21
2023-05-12T18:37:42.544Z,49.48
2023-05-12T18:40:11.418Z,49.14
2023-05-12T18:42:41.171Z,49.48
2023-05-12T18:45:10.363Z,50.29
2023-05-12T18:47:38.774Z,50.44
2023-05-12T18:50:08.211Z,51.12
2023-05-12T18:52:36.378Z,50.97
2023-05-12T18:55:05.285Z,50.83
2023-05-12T18:57:33.658Z,49.41
2023-05-12T19:00:04.635Z,49.52
2023-05-12T19:02:32.920Z,50.19
2023-05-12T19:05:01.890Z,50.46
2023-05-12T19:07:30.096Z,50.76
2023-05-12T19:09:58.256Z,50.69
2023-05-12T19:12:26.786Z,51.16
2023-05-12T19:14:56.368Z,51.90
2023-05-12T19:17:25.959Z,50.94
2023-05-12T19:19:54.101Z,51.28
2023-05-12T19:22:23.435Z,52.19
2023-05-12T19:24:52.310Z,52.84
2023-05-12T19:27:20.553Z,52.28
2023-05-12T19:29:48.734Z,52.74
2023-05-12T19:32:17.198Z,50.53
2023-05-12T19:34:46.854Z,50.14
2023-05-12T19:37:15.098Z,50.67
2023-05-12T19:39:43.288Z,50.17
2023-05-12T19:42:11.446Z,50.47
2023-05-12T19:44:39.525Z,50.58
2023-05-12T19:47:08.640Z,50.26
2023-05-12T19:49:37.462Z,50.63
2023-05-12T19:52:08.000Z,50.38
2023-05-12T19:54:36.892Z,50.26
2023-05-12T19:57:05.473Z,50.71
2023-05-12T19:59:33.721Z,51.00
2023-05-12T20:02:01.908Z,51.28
2023-05-12T20:04:30.033Z,51.59
2023-05-12T20:06:58.193Z,51.22
2023-05-12T20:09:27.678Z,51.70
2023-05-12T20:11:55.822Z,52.35
2023-05-12T20:14:24.162Z,52.06
2023-05-12T20:16:52.464Z,52.10
2023-05-12T20:19:20.631Z,52.16
2023-05-12T20:21:48.707Z,52.02
2023-05-12T20:24:16.842Z,53.04
2023-05-12T20:26:46.347Z,53.15
2023-05-12T20:29:20.635Z,53.86
2023-05-12T20:31:49.734Z,54.61
2023-05-12T20:34:18.793Z,54.56
2023-05-12T20:36:47.696Z,54.16
2023-05-12T20:39:16.462Z,53.75
2023-05-12T20:41:46.406Z,55.08
2023-05-12T20:44:14.585Z,55.31
2023-05-12T20:46:42.838Z,56.17
2023-05-12T20:49:11.036Z,55.78
2023-05-12T20:51:39.144Z,55.54
2023-05-12T20:54:07.615Z,55.57
2023-05-12T20:56:35.757Z,55.81
2023-05-12T20:59:05.300Z,55.90
2023-05-12T21:01:33.477Z,56.91
2023-05-12T21:04:01.896Z,56.60
2023-05-12T21:06:30.212Z,55.80
2023-05-12T21:08:58.389Z,56.04
2023-05-12T21:11:26.897Z,56.44
2023-05-12T21:13:55.018Z,57.79
2023-05-12T21:16:24.576Z,57.50
2023-05-12T21:18:52.877Z,58.09
2023-05-12T21:21:21.050Z,58.85
2023-05-12T21:23:49.142Z,58.87
2023-05-12T21:26:17.374Z,59.56
2023-05-12T21:28:45.519Z,59.76
2023-05-12T21:31:13.655Z,60.33
2023-05-12T21:33:43.090Z,60.42
2023-05-12T21:36:11.308Z,60.32
2023-05-12T21:38:39.435Z,60.26
2023-05-12T21:41:07.581Z,60.19
2023-05-12T21:43:35.684Z,60.42
2023-05-12T21:46:04.600Z,60.75
2023-05-12T21:48:33.327Z,60.58
2023-05-12T21:51:04.484Z,60.00
2023-05-12T21:53:32.846Z,60.00
2023-05-12T21:56:01.069Z,59.93
2023-05-12T21:58:29.201Z,59.69
2023-05-12T22:00:57.352Z,59.64
2023-05-12T22:03:25.886Z,59.48
2023-05-12T22:05:54.049Z,57.62
2023-05-12T22:08:23.675Z,57.73
2023-05-12T22:10:51.843Z,57.36
2023-05-12T22:13:20.047Z,57.45
2023-05-12T22:15:48.217Z,57.37
2023-05-12T22:18:16.427Z,57.57
2023-05-12T22:20:44.616Z,58.28
2023-05-12T22:23:13.845Z,58.60
2023-05-12T22:25:43.383Z,59.15
2023-05-12T22:28:11.505Z,59.75
2023-05-12T22:30:39.612Z,60.28
2023-05-12T22:33:07.794Z,61.28
2023-05-12T22:35:35.912Z,61.20
2023-05-12T22:38:04.177Z,61.20
2023-05-12T22:40:33.473Z,61.40
2023-05-12T22:43:03.053Z,61.60
2023-05-12T22:45:31.374Z,61.36
2023-05-12T22:47:59.561Z,61.78
2023-05-12T22:50:27.734Z,62.47
2023-05-12T22:52:57.325Z,62.59
2023-05-12T22:55:28.201Z,62.87
2023-05-12T22:57:56.331Z,63.07
2023-05-12T23:00:25.911Z,62.71
2023-05-12T23:02:54.732Z,62.46
2023-05-12T23:05:23.066Z,62.93
2023-05-12T23:07:51.450Z,62.63
2023-05-12T23:10:20.082Z,62.47
2023-05-12T23:12:48.558Z,62.25
2023-05-12T23:15:16.706Z,62.21
2023-05-12T23:17:46.249Z,62.30
2023-05-12T23:20:14.843Z,62.67
2023-05-12T23:22:42.912Z,64.28
2023-05-12T23:25:11.162Z,65.62
2023-05-12T23:27:39.324Z,65.44
2023-05-12T23:30:09.259Z,65.50
2023-05-12T23:32:37.512Z,64.19
2023-05-12T23:35:09.435Z,64.52
2023-05-12T23:37:37.627Z,65.44
2023-05-12T23:40:08.005Z,66.08
2023-05-12T23:42:36.138Z,66.45
2023-05-12T23:45:04.666Z,66.12
2023-05-12T23:47:32.896Z,65.31
2023-05-12T23:50:01.646Z,64.92
2023-05-12T23:52:31.069Z,65.35
2023-05-12T23:54:59.061Z,65.66
2023-05-12T23:57:27.420Z,65.53
2023-05-12T23:59:55.576Z,65.85
